Terminal Aerodrome Forecast
Issued by NWS

Home | Current Version | Previous Version | Text Only | Print | Product List | Glossary On
Versions: 1 2 3 4 5 6 7 8 9 10 11 12 13 14 15 16 17 18 19
000
FTUS43 KILX 260520
TAFBMI
TAF
KBMI 260520Z 2606/2706 02007KT P6SM SCT070 OVC250
     FM260900 05004KT 5SM BR SCT015 BKN040
      TEMPO 2609/2613 3SM BR SCT010
     FM261400 06008KT P6SM BKN040
     FM270000 12005KT P6SM BKN100=

USA.gov is the U.S. government's official web portal to all federal, state and local government web resources and services.